createdAt,value
2019-02-02T00:00:47.288Z,0.80
2019-02-02T00:01:59.957Z,0.80
2019-02-02T00:03:08.083Z,0.80
2019-02-02T00:04:17.478Z,0.80
2019-02-02T00:05:23.787Z,0.80
2019-02-02T00:06:31.029Z,0.80
2019-02-02T00:07:37.716Z,0.80
2019-02-02T00:08:44.430Z,0.90
2019-02-02T00:09:51.478Z,0.80
2019-02-02T00:10:58.116Z,0.80
2019-02-02T00:12:05.397Z,0.70
2019-02-02T00:13:12.108Z,0.70
2019-02-02T00:14:19.795Z,0.80
2019-02-02T00:15:26.517Z,0.80
2019-02-02T00:16:33.265Z,0.80
2019-02-02T00:17:40.275Z,0.70
2019-02-02T00:18:48.122Z,0.70
2019-02-02T00:19:55.843Z,0.60
2019-02-02T00:21:02.730Z,0.60
2019-02-02T00:22:09.917Z,0.60
2019-02-02T00:23:16.659Z,0.50
2019-02-02T00:24:23.702Z,0.50
2019-02-02T00:25:31.005Z,0.60
2019-02-02T00:26:37.737Z,0.60
2019-02-02T00:27:44.427Z,0.60
2019-02-02T00:28:51.150Z,0.60
2019-02-02T00:29:58.140Z,0.60
2019-02-02T00:31:04.930Z,0.50
2019-02-02T00:32:11.641Z,0.50
2019-02-02T00:33:18.968Z,0.60
2019-02-02T00:34:25.721Z,0.50
2019-02-02T00:35:33.153Z,0.60
2019-02-02T00:36:40.213Z,0.60
2019-02-02T00:37:46.894Z,0.70
2019-02-02T00:38:54.114Z,0.60
2019-02-02T00:40:01.293Z,0.60
2019-02-02T00:41:08.813Z,0.60
2019-02-02T00:42:15.519Z,0.60
2019-02-02T00:43:22.199Z,0.70
2019-02-02T00:44:28.850Z,0.70
2019-02-02T00:45:35.998Z,0.70
2019-02-02T00:46:42.693Z,0.70
2019-02-02T00:47:49.994Z,0.70
2019-02-02T00:48:56.710Z,0.60
2019-02-02T00:50:04.173Z,0.60
2019-02-02T00:51:11.616Z,0.60
2019-02-02T00:52:18.288Z,0.70
2019-02-02T00:53:24.957Z,0.70
2019-02-02T00:54:32.355Z,0.70
2019-02-02T00:55:39.034Z,0.70
2019-02-02T00:56:46.480Z,0.60
2019-02-02T00:57:54.045Z,0.60
2019-02-02T00:59:01.014Z,0.60
2019-02-02T01:00:10.514Z,0.70
2019-02-02T01:01:17.205Z,0.70
2019-02-02T01:02:23.914Z,0.70
2019-02-02T01:03:31.730Z,0.60
2019-02-02T01:04:38.684Z,0.60
2019-02-02T01:05:45.396Z,0.50
2019-02-02T01:06:52.072Z,0.50
2019-02-02T01:07:59.236Z,0.50
2019-02-02T01:09:16.901Z,0.50
2019-02-02T01:10:27.907Z,0.40
2019-02-02T01:11:34.656Z,0.40
2019-02-02T01:12:41.371Z,0.40
2019-02-02T01:13:48.166Z,0.50
2019-02-02T01:14:55.186Z,0.60
2019-02-02T01:16:01.958Z,0.60
2019-02-02T01:17:08.756Z,0.60
2019-02-02T01:18:15.949Z,0.60
2019-02-02T01:19:23.248Z,0.60
2019-02-02T01:20:30.995Z,0.60
2019-02-02T01:21:38.396Z,0.60
2019-02-02T01:22:46.221Z,0.60
2019-02-02T01:23:53.324Z,0.60
2019-02-02T01:25:00.044Z,0.60
2019-02-02T01:26:07.355Z,0.60
2019-02-02T01:27:14.193Z,0.60
2019-02-02T01:28:21.428Z,0.60
2019-02-02T01:29:28.433Z,0.60
2019-02-02T01:30:35.247Z,0.60
2019-02-02T01:31:41.921Z,0.60
2019-02-02T01:32:48.658Z,0.60
2019-02-02T01:33:55.348Z,0.60
2019-02-02T01:35:02.657Z,0.60
2019-02-02T01:36:09.826Z,0.60
2019-02-02T01:37:16.609Z,0.60
2019-02-02T01:38:23.280Z,0.60
2019-02-02T01:39:30.263Z,0.60
2019-02-02T01:40:36.999Z,0.50
2019-02-02T01:41:43.646Z,0.60
2019-02-02T01:42:50.793Z,0.60
2019-02-02T01:43:57.888Z,0.60
2019-02-02T01:45:06.010Z,0.60
2019-02-02T01:46:13.095Z,0.60
2019-02-02T01:47:19.790Z,0.60
2019-02-02T01:48:26.913Z,0.60
2019-02-02T01:49:33.602Z,0.60
2019-02-02T01:50:40.338Z,0.50
2019-02-02T01:51:46.994Z,0.50
2019-02-02T01:52:53.972Z,0.60
2019-02-02T01:54:00.974Z,0.60
2019-02-02T01:55:09.245Z,0.50
2019-02-02T01:56:15.943Z,0.50
2019-02-02T01:57:22.662Z,0.60
2019-02-02T01:58:29.317Z,0.50
2019-02-02T01:59:36.002Z,0.60
2019-02-02T02:00:43.032Z,0.60
2019-02-02T02:01:50.210Z,0.60
2019-02-02T02:02:57.076Z,0.50
2019-02-02T02:04:03.829Z,0.50
2019-02-02T02:05:11.482Z,0.50
2019-02-02T02:06:18.273Z,0.50
2019-02-02T02:07:25.052Z,0.50
2019-02-02T02:08:31.744Z,0.50
2019-02-02T02:09:38.741Z,0.50
2019-02-02T02:10:45.857Z,0.40
2019-02-02T02:11:52.873Z,0.40
2019-02-02T02:12:59.557Z,0.40
2019-02-02T02:14:06.782Z,0.40
2019-02-02T02:15:15.721Z,0.50
2019-02-02T02:16:22.388Z,0.40
2019-02-02T02:17:29.411Z,0.40
2019-02-02T02:18:36.076Z,0.40
2019-02-02T02:19:43.497Z,0.40
2019-02-02T02:20:50.245Z,0.40
2019-02-02T02:21:56.973Z,0.40
2019-02-02T02:23:03.625Z,0.30
2019-02-02T02:24:10.672Z,0.30
2019-02-02T02:25:19.772Z,0.40
2019-02-02T02:26:26.514Z,0.40
2019-02-02T02:27:33.186Z,0.40
2019-02-02T02:28:39.913Z,0.50
2019-02-02T02:29:46.618Z,0.50
2019-02-02T02:30:53.338Z,0.60
2019-02-02T02:32:00.042Z,0.60
2019-02-02T02:33:06.749Z,0.70
2019-02-02T02:34:14.170Z,0.70
2019-02-02T02:35:21.327Z,0.60
2019-02-02T02:36:27.993Z,0.70
2019-02-02T02:37:35.366Z,0.70
2019-02-02T02:38:42.061Z,0.70
2019-02-02T02:39:48.746Z,0.70
2019-02-02T02:40:55.414Z,0.70
2019-02-02T02:42:02.086Z,0.70
2019-02-02T02:43:09.195Z,0.70
2019-02-02T02:44:16.252Z,0.70
2019-02-02T02:45:23.237Z,0.70
2019-02-02T02:46:30.264Z,0.80
2019-02-02T02:47:36.943Z,0.80
2019-02-02T02:48:43.640Z,0.80
2019-02-02T02:49:50.757Z,0.90
2019-02-02T02:50:57.464Z,0.90
2019-02-02T02:52:04.131Z,0.90
2019-02-02T02:53:10.897Z,0.90
2019-02-02T02:54:17.687Z,0.90
2019-02-02T02:55:25.044Z,0.90
2019-02-02T02:56:31.811Z,0.90
2019-02-02T02:57:38.588Z,0.90
2019-02-02T02:58:45.277Z,0.80
2019-02-02T02:59:52.007Z,0.80
2019-02-02T03:00:58.699Z,0.80
2019-02-02T03:02:06.079Z,0.80
2019-02-02T03:03:12.783Z,0.70
2019-02-02T03:04:19.470Z,0.70
2019-02-02T03:05:26.564Z,0.70
2019-02-02T03:06:33.713Z,0.80
2019-02-02T03:07:40.361Z,0.80
2019-02-02T03:08:47.419Z,0.80
2019-02-02T03:09:54.104Z,0.80
2019-02-02T03:11:01.271Z,0.80
2019-02-02T03:12:08.062Z,0.90
2019-02-02T03:13:14.709Z,0.80
2019-02-02T03:14:21.599Z,0.90
2019-02-02T03:15:28.327Z,0.90
2019-02-02T03:16:35.054Z,0.90
2019-02-02T03:17:42.412Z,0.90
2019-02-02T03:18:49.158Z,0.90
2019-02-02T03:19:56.197Z,0.90
2019-02-02T03:21:03.264Z,0.90
2019-02-02T03:22:09.986Z,0.90
2019-02-02T03:23:16.681Z,0.90
2019-02-02T03:24:23.398Z,0.90
2019-02-02T03:25:30.421Z,0.80
2019-02-02T03:26:37.492Z,0.80
2019-02-02T03:27:44.187Z,0.90
2019-02-02T03:28:53.549Z,0.80
2019-02-02T03:30:00.472Z,0.90
2019-02-02T03:31:07.333Z,0.90
2019-02-02T03:32:14.377Z,0.90
2019-02-02T03:33:23.921Z,0.90
2019-02-02T03:34:30.646Z,0.90
2019-02-02T03:35:37.370Z,1.00
2019-02-02T03:36:44.056Z,1.00
2019-02-02T03:37:51.081Z,0.90
2019-02-02T03:38:58.095Z,1.00
2019-02-02T03:40:06.978Z,1.00
2019-02-02T03:41:13.703Z,1.00
2019-02-02T03:42:20.375Z,1.00
2019-02-02T03:43:27.055Z,1.00
2019-02-02T03:44:34.032Z,1.00
2019-02-02T03:45:41.127Z,1.00
2019-02-02T03:46:47.838Z,1.00
2019-02-02T03:47:56.401Z,1.10
2019-02-02T03:49:03.601Z,1.10
2019-02-02T03:50:11.508Z,1.00
2019-02-02T03:51:18.224Z,1.00
2019-02-02T03:52:24.916Z,1.00
2019-02-02T03:53:31.985Z,1.10
2019-02-02T03:54:39.054Z,1.00
2019-02-02T03:55:46.238Z,1.00
2019-02-02T03:56:53.624Z,1.00
2019-02-02T03:58:00.709Z,1.00
2019-02-02T03:59:07.430Z,0.90
2019-02-02T04:00:17.676Z,0.90
2019-02-02T04:01:24.369Z,0.90
2019-02-02T04:02:31.368Z,0.90
2019-02-02T04:03:38.087Z,0.80
2019-02-02T04:04:45.079Z,0.90
2019-02-02T04:05:51.765Z,0.90
2019-02-02T04:06:58.452Z,0.80
2019-02-02T04:08:05.228Z,0.80
2019-02-02T04:09:12.197Z,0.80
2019-02-02T04:10:19.228Z,0.70
2019-02-02T04:11:26.275Z,0.70
2019-02-02T04:12:33.006Z,0.70
2019-02-02T04:13:39.756Z,0.70
2019-02-02T04:14:46.421Z,0.70
2019-02-02T04:15:53.190Z,0.80
2019-02-02T04:17:00.231Z,0.80
2019-02-02T04:18:06.974Z,0.80
2019-02-02T04:19:14.118Z,0.80
2019-02-02T04:20:24.555Z,0.80
2019-02-02T04:21:31.224Z,0.80
2019-02-02T04:22:38.290Z,0.80
2019-02-02T04:23:44.965Z,0.80
2019-02-02T04:24:51.645Z,0.80
2019-02-02T04:25:59.875Z,0.80
2019-02-02T04:27:06.737Z,0.80
2019-02-02T04:28:13.468Z,0.80
2019-02-02T04:29:20.212Z,0.80
2019-02-02T04:30:28.404Z,0.80
2019-02-02T04:31:35.501Z,0.80
2019-02-02T04:32:42.480Z,0.80
2019-02-02T04:33:49.220Z,0.90
2019-02-02T04:34:55.920Z,0.90
2019-02-02T04:36:02.656Z,0.80
2019-02-02T04:37:09.699Z,0.80
2019-02-02T04:38:18.226Z,0.80
2019-02-02T04:39:24.928Z,0.80
2019-02-02T04:40:31.599Z,0.80
2019-02-02T04:41:39.004Z,0.80
2019-02-02T04:42:46.034Z,0.80
2019-02-02T04:43:52.775Z,0.90
2019-02-02T04:44:59.463Z,0.90
2019-02-02T04:46:06.490Z,0.90
2019-02-02T04:47:13.590Z,0.80
2019-02-02T04:48:20.519Z,0.90
2019-02-02T04:49:27.233Z,0.90
2019-02-02T04:50:34.293Z,0.90
2019-02-02T04:51:40.965Z,0.90
2019-02-02T04:52:48.253Z,0.90
2019-02-02T04:53:58.001Z,0.90
2019-02-02T04:55:04.654Z,0.90
2019-02-02T04:56:11.303Z,0.90
2019-02-02T04:57:18.460Z,0.90
2019-02-02T04:58:25.121Z,0.90
2019-02-02T04:59:32.122Z,0.90
2019-02-02T05:00:38.790Z,1.00
2019-02-02T05:01:45.449Z,0.90
2019-02-02T05:02:52.490Z,1.00
2019-02-02T05:03:59.129Z,1.00
2019-02-02T05:05:07.749Z,0.90
2019-02-02T05:06:14.761Z,0.90
2019-02-02T05:07:21.732Z,0.90
2019-02-02T05:08:28.685Z,0.90
2019-02-02T05:09:35.356Z,0.90
2019-02-02T05:10:42.070Z,0.80
2019-02-02T05:11:48.770Z,0.90
2019-02-02T05:12:55.506Z,0.90
2019-02-02T05:14:02.393Z,0.80
2019-02-02T05:15:09.607Z,0.80
2019-02-02T05:16:16.295Z,0.90
2019-02-02T05:17:22.977Z,0.90
2019-02-02T05:18:30.051Z,0.90
2019-02-02T05:19:36.778Z,1.00
2019-02-02T05:20:43.636Z,1.00
2019-02-02T05:21:50.379Z,0.90
2019-02-02T05:22:57.022Z,1.00
2019-02-02T05:24:04.399Z,1.00
2019-02-02T05:25:11.753Z,0.90
2019-02-02T05:26:18.608Z,0.90
2019-02-02T05:27:25.298Z,0.90
2019-02-02T05:28:31.979Z,0.90
2019-02-02T05:29:41.453Z,0.90
2019-02-02T05:30:47.705Z,0.90
2019-02-02T05:31:54.363Z,0.90
2019-02-02T05:33:01.421Z,0.90
2019-02-02T05:34:08.401Z,0.90
2019-02-02T05:35:15.548Z,0.90
2019-02-02T05:36:22.266Z,0.90
2019-02-02T05:37:28.914Z,0.90
2019-02-02T05:38:35.676Z,0.90
2019-02-02T05:39:42.702Z,1.00
2019-02-02T05:40:49.738Z,1.00
2019-02-02T05:41:56.447Z,1.00
2019-02-02T05:43:03.091Z,1.00
2019-02-02T05:44:10.463Z,0.90
2019-02-02T05:45:19.638Z,0.90
2019-02-02T05:46:26.793Z,0.90
2019-02-02T05:47:33.467Z,0.90
2019-02-02T05:48:40.131Z,0.90
2019-02-02T05:49:49.592Z,0.90
2019-02-02T05:50:55.942Z,0.80
2019-02-02T05:52:02.650Z,0.90
2019-02-02T05:53:09.315Z,0.90
2019-02-02T05:54:16.352Z,0.90
2019-02-02T05:55:23.689Z,0.90
2019-02-02T05:56:30.676Z,0.90
2019-02-02T05:57:37.380Z,0.90
2019-02-02T05:58:44.502Z,0.90
2019-02-02T05:59:52.960Z,0.90
2019-02-02T06:01:00.054Z,1.00
2019-02-02T06:02:07.095Z,1.00
2019-02-02T06:03:14.220Z,0.90
2019-02-02T06:04:21.249Z,1.00
2019-02-02T06:05:28.372Z,1.00
2019-02-02T06:06:35.404Z,1.00
2019-02-02T06:07:42.378Z,0.90
2019-02-02T06:08:49.510Z,0.90
2019-02-02T06:09:56.189Z,0.90
2019-02-02T06:11:03.205Z,0.90
2019-02-02T06:12:10.624Z,0.90
2019-02-02T06:13:17.506Z,0.90
2019-02-02T06:14:25.996Z,0.90
2019-02-02T06:15:32.710Z,0.90
2019-02-02T06:16:39.724Z,0.90
2019-02-02T06:17:46.471Z,0.90
2019-02-02T06:18:53.222Z,0.90
2019-02-02T06:19:59.975Z,0.90
2019-02-02T06:21:06.721Z,0.90
2019-02-02T06:22:13.401Z,0.90
2019-02-02T06:23:20.898Z,0.90
2019-02-02T06:24:27.595Z,0.80
2019-02-02T06:25:34.710Z,0.90
2019-02-02T06:26:41.374Z,0.80
2019-02-02T06:27:48.314Z,0.90
2019-02-02T06:28:55.021Z,0.90
2019-02-02T06:30:04.565Z,0.90
2019-02-02T06:31:11.643Z,0.90
2019-02-02T06:32:18.617Z,0.90
2019-02-02T06:33:25.328Z,0.80
2019-02-02T06:34:32.042Z,0.80
2019-02-02T06:35:38.720Z,0.80
2019-02-02T06:36:46.021Z,0.80
2019-02-02T06:37:53.292Z,0.80
2019-02-02T06:39:00.360Z,0.80
2019-02-02T06:40:08.394Z,0.80
2019-02-02T06:41:35.607Z,0.80
2019-02-02T06:42:43.024Z,0.80
2019-02-02T06:43:50.182Z,0.70
2019-02-02T06:44:56.908Z,0.80
2019-02-02T06:46:03.932Z,0.80
2019-02-02T06:47:10.908Z,0.90
2019-02-02T06:48:17.841Z,0.80
2019-02-02T06:49:24.921Z,0.80
2019-02-02T06:50:31.619Z,0.80
2019-02-02T06:51:38.629Z,0.80
2019-02-02T06:52:45.727Z,0.80
2019-02-02T06:53:52.811Z,0.80
2019-02-02T06:54:59.448Z,0.80
2019-02-02T06:56:06.596Z,0.70
2019-02-02T06:57:13.564Z,0.70
2019-02-02T06:58:20.476Z,0.70
2019-02-02T06:59:27.428Z,0.80
2019-02-02T07:00:34.208Z,0.80
2019-02-02T07:01:40.914Z,0.80
2019-02-02T07:02:48.150Z,0.70
2019-02-02T07:03:54.884Z,0.80
2019-02-02T07:05:01.576Z,0.80
2019-02-02T07:06:08.618Z,0.80
2019-02-02T07:07:15.358Z,0.80
2019-02-02T07:08:22.427Z,0.90
2019-02-02T07:09:30.368Z,0.80
2019-02-02T07:10:37.147Z,0.90
2019-02-02T07:11:43.951Z,0.90
2019-02-02T07:12:51.106Z,0.90
2019-02-02T07:13:57.774Z,0.90
2019-02-02T07:15:04.906Z,0.90
2019-02-02T07:16:11.861Z,0.90
2019-02-02T07:17:18.937Z,0.90
2019-02-02T07:18:25.614Z,0.90
2019-02-02T07:19:32.743Z,0.90
2019-02-02T07:20:39.419Z,0.80
2019-02-02T07:21:46.095Z,0.80
2019-02-02T07:22:52.820Z,0.80
2019-02-02T07:23:59.535Z,0.80
2019-02-02T07:25:07.132Z,0.80
2019-02-02T07:26:14.140Z,0.70
2019-02-02T07:27:21.885Z,0.70
2019-02-02T07:28:28.587Z,0.70
2019-02-02T07:29:35.604Z,0.70
2019-02-02T07:30:42.544Z,0.70
2019-02-02T07:31:49.351Z,0.70
2019-02-02T07:32:56.019Z,0.70
2019-02-02T07:34:02.707Z,0.70
2019-02-02T07:35:11.013Z,0.70
2019-02-02T07:36:17.986Z,0.80
2019-02-02T07:37:24.682Z,0.80
2019-02-02T07:38:31.351Z,0.70
2019-02-02T07:39:38.350Z,0.70
2019-02-02T07:40:45.088Z,0.60
2019-02-02T07:41:52.340Z,0.60
2019-02-02T07:42:59.066Z,0.70
2019-02-02T07:44:05.819Z,0.70
2019-02-02T07:45:19.404Z,0.70
2019-02-02T07:46:26.083Z,0.70
2019-02-02T07:47:32.771Z,0.70
2019-02-02T07:48:39.425Z,0.60
2019-02-02T07:49:46.575Z,0.60
2019-02-02T07:50:53.703Z,0.70
2019-02-02T07:52:00.389Z,0.70
2019-02-02T07:53:07.517Z,0.60
2019-02-02T07:54:14.252Z,0.60
2019-02-02T07:55:21.873Z,0.60
2019-02-02T07:56:28.640Z,0.70
2019-02-02T07:57:35.346Z,0.70
2019-02-02T07:58:42.608Z,0.70
2019-02-02T07:59:49.275Z,0.70
2019-02-02T08:00:56.213Z,0.70
2019-02-02T08:02:03.162Z,0.70
2019-02-02T08:03:12.627Z,0.60
2019-02-02T08:04:19.370Z,0.60
2019-02-02T08:05:26.093Z,0.60
2019-02-02T08:06:32.809Z,0.60
2019-02-02T08:07:39.493Z,0.70
2019-02-02T08:08:46.504Z,0.60
2019-02-02T08:09:53.422Z,0.60
2019-02-02T08:11:00.147Z,0.60
2019-02-02T08:12:07.402Z,0.60
2019-02-02T08:13:14.106Z,0.70
2019-02-02T08:14:20.818Z,0.70
2019-02-02T08:15:30.785Z,0.70
2019-02-02T08:16:37.865Z,0.70
2019-02-02T08:17:44.592Z,0.70
2019-02-02T08:18:51.924Z,0.70
2019-02-02T08:19:58.578Z,0.70
2019-02-02T08:21:05.828Z,0.70
2019-02-02T08:22:12.835Z,0.60
2019-02-02T08:23:21.223Z,0.70
2019-02-02T08:24:28.230Z,0.60
2019-02-02T08:25:35.620Z,0.70
2019-02-02T08:26:42.589Z,0.70
2019-02-02T08:27:50.042Z,0.70
2019-02-02T08:28:56.728Z,0.70
2019-02-02T08:30:03.467Z,0.70
2019-02-02T08:31:10.192Z,0.70
2019-02-02T08:32:16.991Z,0.70
2019-02-02T08:33:23.770Z,0.70
2019-02-02T08:34:31.330Z,0.70
2019-02-02T08:35:38.088Z,0.60
2019-02-02T08:36:44.775Z,0.70
2019-02-02T08:37:51.513Z,0.80
2019-02-02T08:39:00.160Z,0.70
2019-02-02T08:40:09.470Z,0.70
2019-02-02T08:41:16.555Z,0.70
2019-02-02T08:42:23.530Z,0.70
2019-02-02T08:43:30.246Z,0.80
2019-02-02T08:44:36.976Z,0.70
2019-02-02T08:45:43.655Z,0.80
2019-02-02T08:46:50.627Z,0.70
2019-02-02T08:47:57.317Z,0.80
2019-02-02T08:49:04.030Z,0.80
2019-02-02T08:50:16.810Z,0.80
2019-02-02T08:51:23.867Z,0.80
2019-02-02T08:52:31.113Z,0.80
2019-02-02T08:53:38.105Z,0.80
2019-02-02T08:54:44.840Z,0.90
2019-02-02T08:55:52.443Z,0.80
2019-02-02T08:56:59.182Z,0.80
2019-02-02T08:58:06.310Z,0.80
2019-02-02T08:59:13.132Z,0.90
2019-02-02T09:00:21.394Z,0.90
2019-02-02T09:01:28.154Z,0.90
2019-02-02T09:02:34.873Z,0.90
2019-02-02T09:03:41.534Z,0.90
2019-02-02T09:04:48.895Z,0.90
2019-02-02T09:05:55.686Z,0.90
2019-02-02T09:07:02.436Z,0.80
2019-02-02T09:08:09.626Z,0.80
2019-02-02T09:09:16.996Z,0.90
2019-02-02T09:10:28.936Z,0.80
2019-02-02T09:11:35.634Z,0.80
2019-02-02T09:12:42.384Z,0.80
2019-02-02T09:13:49.106Z,0.80
2019-02-02T09:14:55.849Z,0.80
2019-02-02T09:16:02.539Z,0.80
2019-02-02T09:17:09.611Z,0.90
2019-02-02T09:18:16.521Z,0.90
2019-02-02T09:19:23.617Z,0.90
2019-02-02T09:20:30.386Z,0.90
2019-02-02T09:21:37.050Z,0.80
2019-02-02T09:22:44.326Z,0.90
2019-02-02T09:23:51.039Z,0.90
2019-02-02T09:24:58.026Z,0.90
2019-02-02T09:26:04.683Z,0.90
2019-02-02T09:27:11.391Z,0.90
2019-02-02T09:28:18.448Z,0.90
2019-02-02T09:29:25.552Z,0.80
2019-02-02T09:30:35.819Z,0.90
2019-02-02T09:31:42.494Z,0.90
2019-02-02T09:32:49.621Z,0.90
2019-02-02T09:33:56.338Z,0.90
2019-02-02T09:35:03.068Z,0.90
2019-02-02T09:36:09.863Z,0.90
2019-02-02T09:37:16.536Z,0.90
2019-02-02T09:38:23.221Z,0.90
2019-02-02T09:39:29.892Z,0.90
2019-02-02T09:40:36.711Z,0.90
2019-02-02T09:41:43.438Z,0.90
2019-02-02T09:42:50.282Z,0.90
2019-02-02T09:43:57.329Z,0.90
2019-02-02T09:45:04.555Z,0.90
2019-02-02T09:46:11.560Z,0.90
2019-02-02T09:47:20.231Z,0.90
2019-02-02T09:48:27.063Z,0.90
2019-02-02T09:49:34.135Z,0.90
2019-02-02T09:50:40.853Z,0.90
2019-02-02T09:51:47.604Z,0.80
2019-02-02T09:52:54.707Z,0.90
2019-02-02T09:54:01.358Z,0.90
2019-02-02T09:55:11.443Z,0.90
2019-02-02T09:56:18.212Z,0.80
2019-02-02T09:57:27.856Z,0.80
2019-02-02T09:58:33.895Z,0.80
2019-02-02T09:59:40.604Z,0.80
2019-02-02T10:00:47.642Z,0.80
2019-02-02T10:01:54.678Z,0.80
2019-02-02T10:03:01.807Z,0.80
2019-02-02T10:04:08.530Z,0.80
2019-02-02T10:05:15.554Z,0.80
2019-02-02T10:06:22.489Z,0.80
2019-02-02T10:07:29.134Z,0.80
2019-02-02T10:08:35.805Z,0.80
2019-02-02T10:09:42.529Z,0.80
2019-02-02T10:10:49.221Z,0.80
2019-02-02T10:11:56.140Z,0.90
2019-02-02T10:13:02.893Z,0.80
2019-02-02T10:14:09.570Z,0.90
2019-02-02T10:15:17.476Z,0.90
2019-02-02T10:16:24.153Z,1.00
2019-02-02T10:17:30.875Z,0.90
2019-02-02T10:18:37.542Z,0.90
2019-02-02T10:19:44.553Z,0.90
2019-02-02T10:21:03.287Z,0.90
2019-02-02T10:21:59.853Z,0.90
2019-02-02T10:23:07.333Z,0.90
2019-02-02T10:24:14.013Z,1.00
2019-02-02T10:25:24.263Z,1.00
2019-02-02T10:26:30.920Z,1.00
2019-02-02T10:27:37.644Z,1.00
2019-02-02T10:28:44.659Z,1.00
2019-02-02T10:29:51.740Z,1.00
2019-02-02T10:30:58.427Z,1.10
2019-02-02T10:32:05.373Z,1.10
2019-02-02T10:33:13.616Z,1.00
2019-02-02T10:34:20.302Z,0.90
2019-02-02T10:35:27.004Z,0.90
2019-02-02T10:36:33.997Z,1.00
2019-02-02T10:37:41.807Z,1.10
2019-02-02T10:38:48.878Z,1.10
2019-02-02T10:39:55.553Z,1.20
2019-02-02T10:41:02.644Z,1.20
2019-02-02T10:42:10.044Z,1.10
2019-02-02T10:43:16.765Z,1.10
2019-02-02T10:44:23.753Z,1.00
2019-02-02T10:45:30.548Z,1.00
2019-02-02T10:46:37.251Z,1.10
2019-02-02T10:47:44.520Z,1.10
2019-02-02T10:48:51.650Z,1.20
2019-02-02T10:49:58.300Z,1.10
2019-02-02T10:51:05.395Z,1.10
2019-02-02T10:52:12.073Z,1.10
2019-02-02T10:53:18.969Z,1.10
2019-02-02T10:54:25.861Z,1.10
2019-02-02T10:55:32.548Z,1.10
2019-02-02T10:56:41.271Z,1.20
2019-02-02T10:57:47.839Z,1.10
2019-02-02T10:58:54.680Z,1.10
2019-02-02T11:00:01.484Z,1.10
2019-02-02T11:01:08.216Z,1.20
2019-02-02T11:02:17.750Z,1.20
2019-02-02T11:03:24.017Z,1.20
2019-02-02T11:04:30.845Z,1.20
2019-02-02T11:05:38.236Z,1.20
2019-02-02T11:06:45.036Z,1.20
2019-02-02T11:07:54.443Z,1.20
2019-02-02T11:09:00.366Z,1.20
2019-02-02T11:10:10.566Z,1.20
2019-02-02T11:11:17.558Z,1.20
2019-02-02T11:12:24.420Z,1.20
2019-02-02T11:13:31.110Z,1.30
2019-02-02T11:14:38.144Z,1.20
2019-02-02T11:15:45.223Z,1.20
2019-02-02T11:16:57.309Z,1.20
2019-02-02T11:18:04.160Z,1.20
2019-02-02T11:19:11.151Z,1.20
2019-02-02T11:20:24.044Z,1.30
2019-02-02T11:21:31.109Z,1.20
2019-02-02T11:22:37.764Z,1.20
2019-02-02T11:23:45.116Z,1.10
2019-02-02T11:24:51.936Z,1.20
2019-02-02T11:25:58.891Z,1.20
2019-02-02T11:27:06.051Z,1.20
2019-02-02T11:28:12.952Z,1.20
2019-02-02T11:29:19.807Z,1.20
2019-02-02T11:30:28.033Z,1.20
2019-02-02T11:31:35.182Z,1.20
2019-02-02T11:32:42.541Z,1.20
2019-02-02T11:33:49.667Z,1.20
2019-02-02T11:34:56.413Z,1.10
2019-02-02T11:36:03.218Z,1.20
2019-02-02T11:37:10.056Z,1.30
2019-02-02T11:38:21.134Z,1.30
2019-02-02T11:39:31.518Z,1.30
2019-02-02T11:40:38.544Z,1.30
2019-02-02T11:41:49.591Z,1.30
2019-02-02T11:42:58.756Z,1.30
2019-02-02T11:44:06.085Z,1.40
2019-02-02T11:45:13.517Z,1.40
2019-02-02T11:46:20.729Z,1.40
2019-02-02T11:47:27.668Z,1.40
2019-02-02T11:48:37.210Z,1.50
2019-02-02T11:49:44.199Z,1.50
2019-02-02T11:50:50.909Z,1.50
2019-02-02T11:51:57.579Z,1.50
2019-02-02T11:53:05.018Z,1.50
2019-02-02T11:54:12.194Z,1.50
2019-02-02T11:55:19.947Z,1.40
2019-02-02T11:56:26.666Z,1.40
2019-02-02T11:57:33.345Z,1.50
2019-02-02T11:58:40.119Z,1.50
2019-02-02T11:59:46.875Z,1.50
2019-02-02T12:00:53.540Z,1.50
2019-02-02T12:02:00.235Z,1.50
2019-02-02T12:03:07.718Z,1.50
2019-02-02T12:04:14.421Z,1.50
2019-02-02T12:05:21.096Z,1.50
2019-02-02T12:06:28.133Z,1.50
2019-02-02T12:07:34.775Z,1.60
2019-02-02T12:08:41.442Z,1.50
2019-02-02T12:09:48.318Z,1.50
2019-02-02T12:10:55.029Z,1.50
2019-02-02T12:12:02.048Z,1.50
2019-02-02T12:13:08.753Z,1.60
2019-02-02T12:14:15.464Z,1.50
2019-02-02T12:15:22.835Z,1.50
2019-02-02T12:16:30.129Z,1.60
2019-02-02T12:17:36.869Z,1.60
2019-02-02T12:18:43.690Z,1.60
2019-02-02T12:19:50.519Z,1.70
2019-02-02T12:20:57.585Z,1.60
2019-02-02T12:22:04.559Z,1.60
2019-02-02T12:23:11.706Z,1.70
2019-02-02T12:24:20.059Z,1.60
2019-02-02T12:25:26.805Z,1.70
2019-02-02T12:26:33.650Z,1.60
2019-02-02T12:27:40.862Z,1.60
2019-02-02T12:28:48.025Z,1.60
2019-02-02T12:29:57.729Z,1.60
2019-02-02T12:31:03.723Z,1.70
2019-02-02T12:32:10.506Z,1.60
2019-02-02T12:33:17.262Z,1.70
2019-02-02T12:34:25.677Z,1.60
2019-02-02T12:35:32.691Z,1.80
2019-02-02T12:36:39.715Z,1.80
2019-02-02T12:37:46.721Z,1.80
2019-02-02T12:38:53.459Z,1.80
2019-02-02T12:40:00.251Z,1.80
2019-02-02T12:41:07.377Z,1.80
2019-02-02T12:42:14.100Z,1.80
2019-02-02T12:43:21.238Z,1.90
2019-02-02T12:44:27.882Z,1.90
2019-02-02T12:45:48.160Z,1.90
2019-02-02T12:46:55.503Z,1.90
2019-02-02T12:48:02.896Z,2.00
2019-02-02T12:49:09.724Z,2.00
2019-02-02T12:50:17.875Z,2.00
2019-02-02T12:51:24.527Z,2.10
2019-02-02T12:52:31.202Z,2.10
2019-02-02T12:53:37.895Z,2.10
2019-02-02T12:54:44.814Z,2.10
2019-02-02T12:55:52.074Z,2.10
2019-02-02T12:56:59.116Z,2.10
2019-02-02T12:58:07.124Z,2.10
2019-02-02T12:59:13.825Z,2.10
2019-02-02T13:00:21.278Z,2.10
2019-02-02T13:01:28.051Z,2.10
2019-02-02T13:02:38.191Z,2.10
2019-02-02T13:03:43.731Z,2.10
2019-02-02T13:04:51.004Z,2.00
2019-02-02T13:05:57.767Z,2.00
2019-02-02T13:07:05.141Z,2.00
2019-02-02T13:08:12.243Z,2.00
2019-02-02T13:09:18.993Z,2.00
2019-02-02T13:10:27.629Z,2.00
2019-02-02T13:11:34.895Z,2.00
2019-02-02T13:12:42.431Z,2.00
2019-02-02T13:13:49.246Z,2.00
2019-02-02T13:14:56.022Z,2.00
2019-02-02T13:16:03.278Z,2.00
2019-02-02T13:17:10.262Z,2.00
2019-02-02T13:18:17.177Z,2.00
2019-02-02T13:19:24.250Z,1.90
2019-02-02T13:20:30.986Z,1.90
2019-02-02T13:21:38.108Z,2.00
2019-02-02T13:22:45.078Z,1.90
2019-02-02T13:23:52.308Z,1.90
2019-02-02T13:24:59.363Z,1.90
2019-02-02T13:26:06.404Z,1.90
2019-02-02T13:27:13.392Z,1.80
2019-02-02T13:28:20.126Z,2.00
2019-02-02T13:29:27.140Z,2.00
2019-02-02T13:30:36.558Z,2.00
2019-02-02T13:31:43.216Z,2.00
2019-02-02T13:32:50.354Z,2.10
2019-02-02T13:33:57.447Z,2.10
2019-02-02T13:35:04.217Z,2.10
2019-02-02T13:36:11.447Z,2.10
2019-02-02T13:37:18.527Z,2.20
2019-02-02T13:38:25.954Z,2.20
2019-02-02T13:39:32.959Z,2.10
2019-02-02T13:40:39.921Z,2.20
2019-02-02T13:41:47.149Z,2.20
2019-02-02T13:42:54.619Z,2.20
2019-02-02T13:44:01.429Z,2.20
2019-02-02T13:45:10.021Z,2.10
2019-02-02T13:46:16.792Z,2.20
2019-02-02T13:47:23.891Z,2.20
2019-02-02T13:48:31.290Z,2.20
2019-02-02T13:49:38.277Z,2.20
2019-02-02T13:50:45.411Z,2.20
2019-02-02T13:51:52.764Z,2.20
2019-02-02T13:52:59.451Z,2.20
2019-02-02T13:54:06.724Z,2.20
2019-02-02T13:55:13.796Z,2.20
2019-02-02T13:56:20.685Z,2.20
2019-02-02T13:57:27.924Z,2.20
2019-02-02T13:58:34.904Z,2.20
2019-02-02T13:59:41.959Z,2.20
2019-02-02T14:00:48.700Z,2.20
2019-02-02T14:01:55.425Z,2.30
2019-02-02T14:03:03.736Z,2.30
2019-02-02T14:04:12.117Z,2.30
2019-02-02T14:05:19.296Z,2.30
2019-02-02T14:06:26.052Z,2.30
2019-02-02T14:07:32.864Z,2.30
2019-02-02T14:08:39.529Z,2.30
2019-02-02T14:09:46.764Z,2.30
2019-02-02T14:10:53.525Z,2.30
2019-02-02T14:12:01.280Z,2.30
2019-02-02T14:13:08.016Z,2.20
2019-02-02T14:14:14.909Z,2.20
2019-02-02T14:15:22.986Z,2.20
2019-02-02T14:16:30.045Z,2.30
2019-02-02T14:17:36.836Z,2.40
2019-02-02T14:18:43.912Z,2.40
2019-02-02T14:19:50.599Z,2.40
2019-02-02T14:20:57.328Z,2.40
2019-02-02T14:22:03.993Z,2.40
2019-02-02T14:23:10.673Z,2.40
2019-02-02T14:24:17.433Z,2.40
2019-02-02T14:25:24.460Z,2.30
2019-02-02T14:26:31.167Z,2.20
2019-02-02T14:27:37.856Z,2.30
2019-02-02T14:28:44.813Z,2.30
2019-02-02T14:29:51.841Z,2.30
2019-02-02T14:30:58.616Z,2.30
2019-02-02T14:32:05.280Z,2.40
2019-02-02T14:33:14.152Z,2.30
2019-02-02T14:34:21.729Z,2.30
2019-02-02T14:35:30.072Z,2.30
2019-02-02T14:36:36.848Z,2.30
2019-02-02T14:37:43.630Z,2.20
2019-02-02T14:38:50.372Z,2.20
2019-02-02T14:39:57.102Z,2.10
2019-02-02T14:41:03.806Z,2.20
2019-02-02T14:42:10.854Z,2.20
2019-02-02T14:43:17.533Z,2.20
2019-02-02T14:44:26.263Z,2.20
2019-02-02T14:45:33.405Z,2.20
2019-02-02T14:46:40.425Z,2.20
2019-02-02T14:47:47.509Z,2.20
2019-02-02T14:48:54.991Z,2.20
2019-02-02T14:50:01.747Z,2.20
2019-02-02T14:51:08.606Z,2.20
2019-02-02T14:52:15.627Z,2.20
2019-02-02T14:53:23.113Z,2.20
2019-02-02T14:54:29.832Z,2.10